Detall de PIREP

Printer-friendly versionPDF version

[2012/12/24 08:47:00]
Flight IATA:CT1004
Pilot Number:012
Company ICAO:CAT
Aircraft Type:F70/A
PAX:56
Aircraft Registration:PFJ
Departing Airport: GCRR
Destination Airport: LEIB
Alternate Airport:LEPA
Online: VATSIM
Route:KORAL UN871 VJF UN871 MAR UM744 MGA UN851 RUXET
Flight Level:F320
No Slew and time accel
No pause
Crash detect
Detect pilot in Cockpit between each 30 and 45 minutes
08:47 Zero fuel Weight: 65841 Lbs, Fuel Weight: 17477 Lbs
08:47 VATSIM:GCRR 240830Z 01004KT CAVOK 17/10 Q1018
08:47 VATSIM:LEIB 240830Z 21010KT 9999 OVC007 14/14 Q1020 NOSIG
08:47 VOICE CATALONIAN / X-MAS CHARTER
08:49 Parking Brakes off
08:53 Take-off
08:53 Take off Weight: 82982 Lbs
08:53 Wind: 017º @ 004 Knots Heading: 207º
08:53 POS N28º 56´ 25´´ W013º 36´ 29´´
08:53 Gear Up: 151 Knots
08:53 Flaps:2 at 151 Knots
08:53 Flaps:1 at 168 Knots
08:54 Flaps:0 at 200 Knots
09:08 Wind:225º@052 Knots Heading: 057º Ground Speed: 327 Knots Altitude 31637 ft
09:08 TOC
09:08 Fuel Weight: 15387 Lb
09:23 Wind:228º@051 Knots Heading: 057º Ground Speed: 498 Knots Altitude 32148 ft
09:38 Wind:222º@052 Knots Heading: 029º Ground Speed: 499 Knots Altitude 32165 ft
09:53 Wind:221º@055 Knots Heading: 031º Ground Speed: 503 Knots Altitude 32135 ft
10:08 Wind:226º@060 Knots Heading: 031º Ground Speed: 505 Knots Altitude 32198 ft
10:23 Wind:227º@060 Knots Heading: 075º Ground Speed: 505 Knots Altitude 32224 ft
10:38 Wind:238º@052 Knots Heading: 064º Ground Speed: 500 Knots Altitude 32253 ft
10:51 TOD
10:51 Fuel Weight: 7245 Lb
10:53 Wind:235º@041 Knots Heading: 068º Ground Speed: 472 Knots Altitude 29872 ft
11:04 Flaps:1 at 239 Knots
11:08 Wind:256º@019 Knots Heading: 079º Ground Speed: 238 Knots Altitude 6213 ft
11:14 Flaps:2 at 192 Knots
11:14 Flaps:3 at 152 Knots
11:14 Flaps:4 at 150 Knots
11:14 Gear Down: 150 Knots
11:18 TouchDown:Rate -173 ft/min Speed: 107 Knots
11:18 VATSIM:LEIB 241100Z 20010KT 9999 OVC010 14/13 Q1020 NOSIG
11:18 Land
11:18 Wind:222º@012 Knots
11:18 Heading: 252º
11:18 Flight Duration: 02:25
11:18 Landing Weight: 71834 Lbs
11:18 POS N38º 52´ 25´´ E001º 22´ 30´´
11:20 Parking brakes on
11:20 Block to Block Duration: 02:32
11:20 Final Fuel: 5914 Lbls
11:20 Spent Fuel: 11563 Lbls
11:20 Flight Length: 1070 NM
11:20 TOD Land Length: 139 NM

Exportar CSV

Powered by Drupal - Modified by Danger4k